createdAt,value
2022-11-20T00:01:24.297Z,-5.40
2022-11-20T00:03:53.163Z,-5.50
2022-11-20T00:06:21.513Z,-5.50
2022-11-20T00:11:21.089Z,-5.50
2022-11-20T00:13:50.038Z,-5.50
2022-11-20T00:16:19.692Z,-5.60
2022-11-20T00:18:47.221Z,-5.50
2022-11-20T00:21:18.379Z,-5.60
2022-11-20T00:26:16.044Z,-5.50
2022-11-20T00:28:45.206Z,-5.50
2022-11-20T00:31:16.185Z,-5.60
2022-11-20T00:33:44.303Z,-5.50
2022-11-20T00:36:23.660Z,-5.60
2022-11-20T00:38:56.070Z,-5.60
2022-11-20T00:41:24.150Z,-6.10
2022-11-20T00:43:53.484Z,-5.70
2022-11-20T00:46:23.105Z,-5.70
2022-11-20T00:48:50.404Z,-6.30
2022-11-20T00:51:20.241Z,-5.80
2022-11-20T00:53:47.787Z,-5.90
2022-11-20T00:56:17.125Z,-5.80
2022-11-20T00:58:45.916Z,-4.10
2022-11-20T01:01:19.927Z,-5.90
2022-11-20T01:03:49.126Z,-5.90
2022-11-20T01:06:23.301Z,-5.90
2022-11-20T01:08:51.722Z,-6.30
2022-11-20T01:11:24.828Z,-5.90
2022-11-20T01:13:53.290Z,-6.00
2022-11-20T01:16:22.726Z,-5.90
2022-11-20T01:18:52.561Z,-5.80
2022-11-20T01:21:31.939Z,-5.90
2022-11-20T01:24:00.064Z,-6.00
2022-11-20T01:26:29.542Z,-6.00
2022-11-20T01:28:57.955Z,-5.80
2022-11-20T01:33:55.837Z,-6.00
2022-11-20T01:36:25.089Z,-5.90
2022-11-20T01:38:54.178Z,-6.00
2022-11-20T01:41:40.838Z,-6.00
2022-11-20T01:46:39.264Z,-6.10
2022-11-20T01:49:32.278Z,-6.20
2022-11-20T01:52:06.412Z,-6.00
2022-11-20T01:54:40.413Z,-9.10
2022-11-20T01:57:11.542Z,-6.10
2022-11-20T01:59:45.643Z,-6.10
2022-11-20T02:02:12.588Z,-6.00
2022-11-20T02:16:57.139Z,-6.20
2022-11-20T02:22:06.579Z,-5.90
2022-11-20T02:27:08.740Z,-6.10
2022-11-20T02:29:47.742Z,-6.20
2022-11-20T02:32:21.592Z,-6.30
2022-11-20T02:39:44.103Z,-6.40
2022-11-20T02:52:01.356Z,-5.60
2022-11-20T03:22:31.164Z,-6.30
2022-11-20T03:27:25.659Z,-5.80
2022-11-20T03:32:20.075Z,-6.20
2022-11-20T03:42:30.101Z,-6.30
2022-11-20T03:54:46.755Z,-6.40
2022-11-20T04:16:53.417Z,-6.40
2022-11-20T04:24:15.793Z,-6.30
2022-11-20T04:29:12.752Z,-7.20
2022-11-20T04:34:08.442Z,-6.50
2022-11-20T04:39:05.932Z,-6.50
2022-11-20T04:41:35.685Z,-6.50
2022-11-20T04:44:04.664Z,-6.60
2022-11-20T04:46:36.673Z,-6.70
2022-11-20T04:49:04.446Z,-6.60
2022-11-20T05:01:23.541Z,-5.70
2022-11-20T05:06:20.779Z,-6.00
2022-11-20T05:11:19.127Z,-6.00
2022-11-20T05:16:15.900Z,-5.80
2022-11-20T05:18:43.008Z,-5.20
2022-11-20T05:21:11.317Z,-5.50
2022-11-20T05:23:39.120Z,-5.50
2022-11-20T05:26:07.887Z,-5.40
2022-11-20T05:28:35.928Z,-5.30
2022-11-20T05:31:08.395Z,-5.30
2022-11-20T05:33:36.610Z,-5.20
2022-11-20T05:36:04.973Z,-5.40
2022-11-20T05:41:08.074Z,-5.00
2022-11-20T05:43:40.388Z,-4.90
2022-11-20T05:46:08.702Z,-4.90
2022-11-20T05:48:36.192Z,-4.90
2022-11-20T05:51:05.510Z,-4.80
2022-11-20T05:53:34.376Z,-4.70
2022-11-20T05:56:13.156Z,-4.60
2022-11-20T05:58:40.673Z,-4.50
2022-11-20T06:01:23.612Z,-4.60
2022-11-20T06:03:51.785Z,-4.60
2022-11-20T06:06:19.968Z,-4.30
2022-11-20T06:11:16.502Z,-4.60
2022-11-20T06:13:44.621Z,-4.50
2022-11-20T06:16:13.949Z,-4.50
2022-11-20T06:21:14.837Z,-4.60
2022-11-20T06:26:15.646Z,-4.40
2022-11-20T06:28:43.055Z,-4.40
2022-11-20T06:31:14.315Z,-4.60
2022-11-20T06:33:42.196Z,-4.60
2022-11-20T06:36:11.480Z,-4.60
2022-11-20T06:38:39.497Z,-4.60
2022-11-20T06:41:12.147Z,-4.60
2022-11-20T06:43:39.919Z,-4.70
2022-11-20T06:51:07.502Z,-4.60
2022-11-20T06:53:35.604Z,-4.60
2022-11-20T06:58:32.462Z,-4.40
2022-11-20T07:01:03.094Z,-4.30
2022-11-20T07:03:30.298Z,-4.50
2022-11-20T07:05:58.272Z,-4.40
2022-11-20T07:08:25.660Z,-4.30
2022-11-20T07:10:53.049Z,-4.40
2022-11-20T07:18:14.814Z,-3.80
2022-11-20T07:30:31.892Z,-3.00
2022-11-20T07:37:53.924Z,-3.60
2022-11-20T07:42:53.138Z,-3.00
2022-11-20T07:45:21.240Z,-3.70
2022-11-20T07:50:15.943Z,-3.10
2022-11-20T07:55:11.381Z,-3.30
2022-11-20T08:00:09.961Z,-3.20
2022-11-20T08:02:43.004Z,-3.20
2022-11-20T08:05:10.842Z,-3.00
2022-11-20T08:07:41.863Z,-3.10
2022-11-20T08:10:11.574Z,-3.00
2022-11-20T08:13:04.563Z,-2.90
2022-11-20T08:15:32.844Z,-3.00
2022-11-20T08:18:29.994Z,-3.10
2022-11-20T08:23:24.265Z,-3.00
2022-11-20T08:25:52.207Z,-2.70
2022-11-20T08:28:21.627Z,-2.40
2022-11-20T08:30:50.889Z,-2.40
2022-11-20T08:48:04.639Z,-1.50
2022-11-20T08:50:33.398Z,-1.50
2022-11-20T08:53:07.541Z,-1.70
2022-11-20T08:58:07.753Z,-2.10
2022-11-20T09:00:35.492Z,-1.80
2022-11-20T09:03:03.043Z,-1.50
2022-11-20T09:07:58.457Z,-1.70
2022-11-20T09:12:53.874Z,-1.60
2022-11-20T09:18:00.245Z,-1.60
2022-11-20T09:20:30.163Z,-1.30
2022-11-20T09:22:58.044Z,-1.20
2022-11-20T09:27:59.662Z,-0.80
2022-11-20T09:30:27.693Z,-0.60
2022-11-20T09:40:24.310Z,-0.40
2022-11-20T09:43:32.323Z,-0.20
2022-11-20T09:46:28.605Z,-0.10
2022-11-20T09:49:30.695Z,-0.40
2022-11-20T09:52:28.492Z,-0.10
2022-11-20T09:54:56.000Z,0.20
2022-11-20T09:57:30.803Z,0.10
2022-11-20T10:00:01.882Z,0.20
2022-11-20T10:02:53.540Z,0.10
2022-11-20T10:05:47.923Z,-0.10
2022-11-20T10:08:25.031Z,0.10
2022-11-20T10:11:36.372Z,0.20
2022-11-20T10:14:09.343Z,0.10
2022-11-20T10:16:48.795Z,0.10
2022-11-20T10:19:27.761Z,0.50
2022-11-20T10:22:12.474Z,0.70
2022-11-20T10:25:01.348Z,0.50
2022-11-20T10:27:50.096Z,0.50
2022-11-20T10:30:19.837Z,0.60
2022-11-20T10:33:13.856Z,0.80
2022-11-20T10:35:55.845Z,1.10
2022-11-20T10:38:35.828Z,1.10
2022-11-20T10:41:23.519Z,2.00
2022-11-20T10:44:01.828Z,1.10
2022-11-20T10:46:38.573Z,1.30
2022-11-20T10:49:12.776Z,1.40
2022-11-20T10:52:01.511Z,1.20
2022-11-20T10:54:44.503Z,1.40
2022-11-20T10:57:43.358Z,1.80
2022-11-20T11:00:14.785Z,2.10
2022-11-20T11:02:50.362Z,2.30
2022-11-20T11:05:41.585Z,2.50
2022-11-20T11:08:18.856Z,2.50
2022-11-20T11:11:02.724Z,2.60
2022-11-20T11:13:31.652Z,2.70
2022-11-20T11:20:55.599Z,2.60
2022-11-20T11:23:39.348Z,2.90
2022-11-20T11:26:19.470Z,2.60
2022-11-20T11:29:01.358Z,2.70
2022-11-20T11:31:33.613Z,2.70
2022-11-20T11:34:07.456Z,2.60
2022-11-20T11:36:37.868Z,2.50
2022-11-20T11:39:07.804Z,2.80
2022-11-20T11:41:38.575Z,2.60
2022-11-20T11:44:41.921Z,2.50
2022-11-20T11:47:27.633Z,2.20
2022-11-20T11:50:09.979Z,2.00
2022-11-20T11:53:00.414Z,2.20
2022-11-20T11:55:39.410Z,2.40
2022-11-20T11:58:16.397Z,2.80
2022-11-20T12:00:52.460Z,3.30
2022-11-20T12:03:36.183Z,3.40
2022-11-20T12:06:11.350Z,3.40
2022-11-20T12:08:56.917Z,3.30
2022-11-20T12:11:43.269Z,3.00
2022-11-20T12:14:27.802Z,3.20
2022-11-20T12:22:05.025Z,2.60
2022-11-20T12:24:54.251Z,2.60
2022-11-20T12:27:45.572Z,2.80
2022-11-20T12:30:17.060Z,3.20
2022-11-20T12:35:26.675Z,3.10
2022-11-20T12:38:14.860Z,3.10
2022-11-20T12:40:47.440Z,3.50
2022-11-20T12:43:44.247Z,4.00
2022-11-20T12:47:00.695Z,4.30
2022-11-20T12:54:40.973Z,3.60
2022-11-20T12:57:20.410Z,3.60
2022-11-20T13:00:10.862Z,3.70
2022-11-20T13:02:49.540Z,3.50
2022-11-20T13:05:40.106Z,3.50
2022-11-20T13:08:30.394Z,3.40
2022-11-20T13:11:18.326Z,3.10
2022-11-20T13:14:12.621Z,2.90
2022-11-20T13:16:48.328Z,2.70
2022-11-20T13:19:17.831Z,2.80
2022-11-20T13:21:52.682Z,2.80
2022-11-20T13:24:28.775Z,2.80
2022-11-20T13:27:14.145Z,2.90
2022-11-20T13:29:46.843Z,3.10
2022-11-20T13:32:19.925Z,2.40
2022-11-20T13:34:58.291Z,3.10
2022-11-20T13:37:34.910Z,3.20
2022-11-20T13:40:13.607Z,3.10
2022-11-20T13:42:43.424Z,3.10
2022-11-20T13:45:22.790Z,3.00
2022-11-20T13:47:52.141Z,3.00
2022-11-20T13:50:28.761Z,3.00
2022-11-20T13:53:11.718Z,3.00
2022-11-20T13:56:00.160Z,2.80
2022-11-20T13:58:53.885Z,2.60
2022-11-20T14:01:32.792Z,3.10
2022-11-20T14:04:07.581Z,2.30
2022-11-20T14:06:43.140Z,2.30
2022-11-20T14:09:29.450Z,2.20
2022-11-20T14:14:29.958Z,1.90
2022-11-20T14:17:18.090Z,2.40
2022-11-20T14:19:48.014Z,1.70
2022-11-20T14:22:21.612Z,1.80
2022-11-20T14:24:49.956Z,1.60
2022-11-20T14:27:20.495Z,1.50
2022-11-20T14:29:50.093Z,1.50
2022-11-20T14:32:19.871Z,2.80
2022-11-20T14:34:49.983Z,1.40
2022-11-20T14:37:24.389Z,1.20
2022-11-20T14:39:56.845Z,1.30
2022-11-20T14:42:27.170Z,1.20
2022-11-20T14:44:57.496Z,1.10
2022-11-20T14:47:30.709Z,1.00
2022-11-20T14:49:59.829Z,1.10
2022-11-20T14:52:28.499Z,1.20
2022-11-20T14:55:00.322Z,0.70
2022-11-20T15:00:13.293Z,1.20
2022-11-20T15:02:47.692Z,1.10
2022-11-20T15:05:16.548Z,1.20
2022-11-20T15:07:49.233Z,1.20
2022-11-20T15:10:27.213Z,1.10
2022-11-20T15:12:57.902Z,1.10
2022-11-20T15:15:28.811Z,1.00
2022-11-20T15:20:27.509Z,1.00
2022-11-20T15:25:21.909Z,1.00
2022-11-20T15:27:55.518Z,0.80
2022-11-20T15:40:13.623Z,0.60
2022-11-20T15:45:32.084Z,0.60
2022-11-20T15:50:34.589Z,0.50
2022-11-20T15:57:56.633Z,0.50
2022-11-20T16:05:18.766Z,0.60
2022-11-20T16:18:14.980Z,0.50
2022-11-20T16:20:42.214Z,0.60
2022-11-20T16:23:09.538Z,0.40
2022-11-20T16:30:33.580Z,0.40
2022-11-20T16:33:01.703Z,0.40
2022-11-20T16:42:52.323Z,0.30
2022-11-20T17:02:39.438Z,0.70
2022-11-20T17:05:06.820Z,0.80
2022-11-20T17:07:33.897Z,0.70
2022-11-20T17:10:01.101Z,0.90
2022-11-20T17:12:28.133Z,0.90
2022-11-20T17:19:50.052Z,0.60
2022-11-20T17:27:12.142Z,0.90
2022-11-20T17:32:09.488Z,0.80
2022-11-20T17:44:47.401Z,0.80
2022-11-20T17:49:43.635Z,1.00
2022-11-20T17:57:25.290Z,1.10
2022-11-20T18:17:07.603Z,1.10
2022-11-20T18:19:47.998Z,1.10
2022-11-20T18:32:22.717Z,0.90
2022-11-20T18:34:50.719Z,1.00
2022-11-20T18:42:33.064Z,0.80
2022-11-20T18:47:31.129Z,0.90
2022-11-20T18:49:59.909Z,0.90
2022-11-20T18:52:34.072Z,1.00
2022-11-20T18:55:02.705Z,0.90
2022-11-20T18:57:31.345Z,0.70
2022-11-20T19:00:08.425Z,0.70
2022-11-20T19:02:41.550Z,0.70
2022-11-20T19:05:11.916Z,0.60
2022-11-20T19:10:06.866Z,0.60
2022-11-20T19:39:37.126Z,0.70
2022-11-20T19:44:33.002Z,0.80
2022-11-20T20:01:46.735Z,0.40
2022-11-20T20:09:12.263Z,0.60
2022-11-20T20:11:40.817Z,0.50
2022-11-20T20:14:10.710Z,0.60
2022-11-20T20:19:06.103Z,0.50
2022-11-20T20:21:35.085Z,0.40
2022-11-20T20:26:31.770Z,0.50
2022-11-20T20:31:30.026Z,0.60
2022-11-20T20:36:25.458Z,0.70
2022-11-20T20:38:54.242Z,0.80
2022-11-20T20:41:23.616Z,0.70
2022-11-20T21:11:19.995Z,0.40
2022-11-20T21:13:48.919Z,0.40
2022-11-20T21:16:17.449Z,0.50
2022-11-20T21:21:32.791Z,0.40
2022-11-20T21:31:28.660Z,0.40
2022-11-20T21:33:56.999Z,0.30
2022-11-20T21:36:26.444Z,0.30
2022-11-20T21:38:55.082Z,0.30
2022-11-20T21:41:23.011Z,0.30
2022-11-20T21:44:09.485Z,0.30
2022-11-20T21:46:40.802Z,0.30
2022-11-20T21:49:08.130Z,0.40
2022-11-20T21:51:35.524Z,0.20
2022-11-20T21:56:33.523Z,1.00
2022-11-20T22:01:29.948Z,-0.10
2022-11-20T22:03:59.960Z,0.00
2022-11-20T22:06:32.586Z,0.00
2022-11-20T22:09:00.848Z,-0.10
2022-11-20T22:21:40.302Z,0.00
2022-11-20T22:24:12.317Z,-0.10
2022-11-20T22:33:23.637Z,0.20
2022-11-20T22:40:46.748Z,0.50
2022-11-20T22:43:14.395Z,0.40
2022-11-20T22:48:09.811Z,0.50
2022-11-20T22:55:34.055Z,0.40
2022-11-20T23:07:50.816Z,0.40
2022-11-20T23:20:08.712Z,0.60
2022-11-20T23:37:21.057Z,0.60
